Charter Quote
Worldwide +44-20-3874-8091 Call
Select Language Lang
SAFETY RELIABILITY EXPERIENCE

El Bosque Airport (SCBQ) - Jet Charter Services

AIRPORT INFORMATION
ICAOSCBQ
LOCATIONSantiago, Chile
FACILITY TYPEAIRPORT
Runway Length (ft) Width (ft) Surface Type Elevation (ft)
20/02 6024 131 CON 1842.78689

At Paramount Business Jets you can hire chartered private jets to and from El Bosque Airport with as little as 4 hours of notice. All flights booked via Paramount Business Jets are operated by certified direct air carriers that meet and exceed the FAA part 135 and 121 protocol or a foreign equivalent safety authority. Furthermore, Paramount Business Jets subscribes to ARGUS for their third party safety checks of operators, aircraft, and crews prior each and every flight to and from El Bosque Airport and worldwide.

  • Quote a trip using El Bosque Airport or call us 24/7 - 365 days a year at +44-20-3874-8091.
Questions? Call +44-20-3874-8091

METAR Weather Data at El Bosque Airport, SCBQ

STATIONSCBQ
OBSERVEDSun Sep 14, 11:00 UTC
NOWThu Jun 20, 23:30 UTC
AGE94356:30 hr ago
WINDcalm
VISIBILITY1.6 miles
CONDITIONSfog
CLOUDSscattered clouds
TEMP79°F (26°C)
DEWPT77°F (25°C)
HUMIDITY94%
BAROMETER1007 hPa (29.74 in Hg)
METARSCBQ 141100Z 00000KT 1000 FG FMW008 SCT080 26/25 A2974 RMK APCLO

Call us on +44-20-3874-8091 (24 Hours) to Hire a Private Jet or Get a Quick Quote.

Find Airports Near any Location

Processing
...